createdAt,value
2022-11-25T00:00:34.586Z,3.37
2022-11-25T00:03:01.390Z,3.39
2022-11-25T00:05:28.559Z,3.73
2022-11-25T00:07:55.338Z,3.61
2022-11-25T00:10:22.117Z,3.64
2022-11-25T00:12:48.826Z,3.54
2022-11-25T00:15:15.561Z,3.48
2022-11-25T00:17:42.221Z,3.28
2022-11-25T00:20:09.273Z,3.22
2022-11-25T00:22:35.997Z,3.29
2022-11-25T00:25:02.661Z,3.32
2022-11-25T00:27:29.364Z,3.25
2022-11-25T00:29:59.300Z,3.17
2022-11-25T00:32:26.059Z,3.10
2022-11-25T00:34:52.725Z,3.23
2022-11-25T00:37:19.771Z,3.25
2022-11-25T00:39:46.481Z,3.28
2022-11-25T00:42:31.432Z,3.72
2022-11-25T00:44:58.131Z,3.84
2022-11-25T00:47:24.878Z,3.90
2022-11-25T00:49:53.928Z,3.78
2022-11-25T00:52:26.136Z,3.73
2022-11-25T00:54:54.317Z,3.64
2022-11-25T00:57:23.183Z,3.39
2022-11-25T00:59:50.411Z,3.52
2022-11-25T01:02:18.993Z,3.65
2022-11-25T01:04:46.703Z,3.62
2022-11-25T01:07:16.041Z,3.42
2022-11-25T01:09:42.840Z,3.32
2022-11-25T01:12:09.508Z,3.34
2022-11-25T01:14:36.880Z,3.15
2022-11-25T01:17:03.904Z,3.07
2022-11-25T01:19:32.688Z,2.98
2022-11-25T01:22:00.105Z,2.95
2022-11-25T01:24:26.815Z,2.96
2022-11-25T01:26:55.121Z,3.19
2022-11-25T01:29:22.692Z,3.03
2022-11-25T01:31:50.538Z,3.17
2022-11-25T01:34:23.146Z,3.20
2022-11-25T01:36:49.898Z,3.30
2022-11-25T01:39:22.154Z,3.07
2022-11-25T01:41:51.203Z,3.32
2022-11-25T01:44:21.588Z,3.34
2022-11-25T01:47:02.146Z,3.29
2022-11-25T01:49:42.764Z,3.17
2022-11-25T01:52:15.678Z,2.95
2022-11-25T01:55:09.592Z,3.03
2022-11-25T01:57:44.441Z,3.14
2022-11-25T02:00:11.816Z,3.28
2022-11-25T02:02:45.431Z,3.34
2022-11-25T02:05:18.161Z,3.11
2022-11-25T02:07:48.564Z,3.02
2022-11-25T02:10:28.881Z,2.98
2022-11-25T02:12:55.648Z,2.89
2022-11-25T02:15:22.962Z,2.93
2022-11-25T02:17:49.941Z,3.45
2022-11-25T02:20:19.453Z,3.50
2022-11-25T02:23:12.372Z,3.42
2022-11-25T02:25:41.080Z,3.43
2022-11-25T02:28:15.877Z,3.60
2022-11-25T02:30:43.227Z,3.55
2022-11-25T02:33:10.232Z,3.66
2022-11-25T02:36:01.797Z,3.60
2022-11-25T02:38:39.611Z,3.84
2022-11-25T02:41:25.450Z,3.70
2022-11-25T02:43:57.397Z,3.91
2022-11-25T02:46:27.106Z,3.85
2022-11-25T02:49:11.684Z,3.85
2022-11-25T02:51:44.576Z,3.88
2022-11-25T02:54:15.973Z,3.73
2022-11-25T02:56:43.060Z,3.76
2022-11-25T02:59:10.164Z,3.88
2022-11-25T03:01:38.590Z,3.75
2022-11-25T03:04:07.589Z,3.74
2022-11-25T03:06:34.574Z,3.69
2022-11-25T03:09:01.828Z,3.71
2022-11-25T03:11:47.445Z,3.69
2022-11-25T03:14:15.279Z,3.76
2022-11-25T03:16:43.272Z,3.82
2022-11-25T03:19:10.341Z,3.88
2022-11-25T03:21:37.044Z,3.90
2022-11-25T03:24:04.052Z,3.94
2022-11-25T03:26:30.948Z,4.18
2022-11-25T03:28:57.644Z,4.20
2022-11-25T03:31:24.457Z,4.09
2022-11-25T03:33:51.291Z,4.01
2022-11-25T03:36:18.039Z,3.96
2022-11-25T03:38:44.789Z,3.96
2022-11-25T03:41:11.518Z,3.93
2022-11-25T03:43:38.246Z,3.99
2022-11-25T03:46:05.387Z,4.08
2022-11-25T03:48:32.583Z,4.11
2022-11-25T03:50:59.405Z,4.11
2022-11-25T03:53:27.915Z,4.32
2022-11-25T03:55:54.697Z,4.33
2022-11-25T03:58:24.595Z,4.45
2022-11-25T04:00:51.903Z,4.41
2022-11-25T04:03:18.780Z,4.32
2022-11-25T04:05:45.749Z,4.25
2022-11-25T04:08:12.929Z,4.24
2022-11-25T04:10:39.877Z,4.19
2022-11-25T04:13:08.413Z,4.20
2022-11-25T04:15:43.859Z,4.23
2022-11-25T04:18:10.576Z,4.25
2022-11-25T04:20:37.247Z,4.25
2022-11-25T04:23:07.408Z,4.26
2022-11-25T04:25:38.770Z,4.31
2022-11-25T04:28:11.965Z,4.34
2022-11-25T04:30:39.463Z,4.26
2022-11-25T04:33:06.712Z,4.25
2022-11-25T04:35:33.594Z,4.28
2022-11-25T04:38:01.029Z,4.29
2022-11-25T04:40:29.679Z,4.31
2022-11-25T04:43:15.143Z,4.37
2022-11-25T04:46:13.521Z,4.37
2022-11-25T04:48:40.901Z,4.39
2022-11-25T04:51:08.348Z,4.46
2022-11-25T04:53:35.289Z,4.57
2022-11-25T04:56:02.106Z,4.58
2022-11-25T04:59:09.316Z,4.61
2022-11-25T05:01:40.417Z,4.70
2022-11-25T05:04:26.048Z,4.74
2022-11-25T05:06:54.126Z,4.85
2022-11-25T05:09:21.979Z,4.83
2022-11-25T05:11:57.411Z,4.84
2022-11-25T05:14:25.462Z,4.96
2022-11-25T05:16:53.009Z,4.97
2022-11-25T05:19:20.074Z,5.19
2022-11-25T05:21:47.834Z,5.24
2022-11-25T05:24:15.162Z,5.39
2022-11-25T05:26:43.337Z,5.44
2022-11-25T05:29:10.439Z,5.15
2022-11-25T05:31:37.353Z,5.00
2022-11-25T05:34:05.156Z,4.96
2022-11-25T05:36:32.178Z,4.87
2022-11-25T05:38:59.717Z,4.86
2022-11-25T05:41:40.128Z,4.92
2022-11-25T05:44:06.931Z,4.98
2022-11-25T05:46:33.855Z,4.98
2022-11-25T05:49:01.018Z,5.01
2022-11-25T05:51:30.245Z,5.07
2022-11-25T05:53:59.196Z,5.09
2022-11-25T05:56:29.670Z,5.27
2022-11-25T05:59:08.272Z,5.46
2022-11-25T06:02:01.337Z,5.45
2022-11-25T06:04:29.597Z,5.44
2022-11-25T06:06:56.810Z,5.32
2022-11-25T06:09:23.712Z,5.36
2022-11-25T06:11:51.150Z,5.42
2022-11-25T06:14:18.683Z,5.47
2022-11-25T06:16:47.081Z,5.50
2022-11-25T06:19:28.678Z,5.48
2022-11-25T06:21:55.382Z,5.51
2022-11-25T06:24:22.125Z,5.50
2022-11-25T06:26:54.572Z,5.51
2022-11-25T06:29:21.378Z,5.62
2022-11-25T06:31:50.599Z,5.60
2022-11-25T06:34:37.532Z,5.73
2022-11-25T06:37:06.717Z,5.72
2022-11-25T06:39:33.352Z,5.73
2022-11-25T06:42:00.065Z,5.70
2022-11-25T06:44:27.073Z,5.78
2022-11-25T06:46:54.208Z,5.74
2022-11-25T06:49:21.020Z,5.69
2022-11-25T06:51:49.758Z,5.81
2022-11-25T06:54:16.857Z,5.73
2022-11-25T06:56:43.686Z,5.75
2022-11-25T06:59:10.495Z,5.84
2022-11-25T07:01:38.317Z,5.88
2022-11-25T07:04:05.916Z,5.90
2022-11-25T07:06:33.537Z,5.98
2022-11-25T07:09:01.000Z,6.11
2022-11-25T07:11:33.239Z,6.21
2022-11-25T07:14:03.116Z,6.32
2022-11-25T07:16:31.733Z,6.39
2022-11-25T07:19:03.159Z,6.44
2022-11-25T07:21:31.348Z,6.48
2022-11-25T07:24:00.322Z,6.47
2022-11-25T07:26:29.804Z,6.48
2022-11-25T07:29:00.001Z,6.42
2022-11-25T07:31:34.048Z,6.41
2022-11-25T07:34:07.245Z,6.44
2022-11-25T07:36:35.585Z,6.45
2022-11-25T07:39:06.602Z,6.45
2022-11-25T07:41:34.158Z,6.47
2022-11-25T07:44:03.423Z,6.45
2022-11-25T07:46:37.384Z,6.45
2022-11-25T07:49:06.602Z,6.47
2022-11-25T07:51:35.112Z,6.49
2022-11-25T07:54:04.055Z,6.51
2022-11-25T07:56:33.222Z,6.54
2022-11-25T07:59:00.096Z,6.54
2022-11-25T08:01:26.881Z,6.56
2022-11-25T08:03:54.251Z,6.64
2022-11-25T08:06:25.420Z,6.69
2022-11-25T08:08:55.769Z,6.68
2022-11-25T08:11:31.477Z,6.72
2022-11-25T08:13:59.376Z,6.74
2022-11-25T08:16:29.778Z,6.76
2022-11-25T08:18:57.374Z,6.80
2022-11-25T08:21:24.895Z,6.79
2022-11-25T08:23:52.692Z,6.82
2022-11-25T08:26:22.510Z,6.83
2022-11-25T08:28:49.974Z,6.85
2022-11-25T08:31:21.124Z,6.84
2022-11-25T08:33:48.668Z,6.83
2022-11-25T08:36:16.554Z,6.83
2022-11-25T08:38:44.727Z,6.86
2022-11-25T08:41:17.388Z,6.88
2022-11-25T08:43:44.259Z,6.92
2022-11-25T08:46:14.068Z,7.01
2022-11-25T08:48:41.304Z,7.02
2022-11-25T08:51:11.441Z,7.09
2022-11-25T08:53:39.532Z,7.05
2022-11-25T08:56:06.948Z,7.06
2022-11-25T08:58:33.959Z,7.06
2022-11-25T09:01:01.336Z,7.08
2022-11-25T09:03:28.387Z,7.12
2022-11-25T09:05:55.242Z,7.18
2022-11-25T09:08:21.989Z,7.17
2022-11-25T09:10:48.818Z,7.27
2022-11-25T09:13:15.593Z,7.41
2022-11-25T09:15:42.331Z,7.68
2022-11-25T09:18:11.132Z,7.80
2022-11-25T09:20:39.761Z,7.76
2022-11-25T09:23:07.887Z,7.73
2022-11-25T09:25:35.617Z,7.76
2022-11-25T09:28:02.695Z,7.66
2022-11-25T09:30:29.747Z,7.74
2022-11-25T09:32:56.841Z,7.87
2022-11-25T09:35:24.787Z,8.03
2022-11-25T09:37:51.754Z,8.01
2022-11-25T09:40:22.086Z,8.01
2022-11-25T09:43:10.302Z,8.15
2022-11-25T09:46:09.469Z,8.18
2022-11-25T09:48:58.157Z,7.83
2022-11-25T09:51:39.020Z,8.16
2022-11-25T09:54:17.510Z,8.32
2022-11-25T09:57:00.704Z,8.19
2022-11-25T09:59:43.802Z,8.17
2022-11-25T10:02:51.990Z,8.20
2022-11-25T10:05:25.540Z,8.85
2022-11-25T10:07:56.770Z,9.10
2022-11-25T10:10:27.913Z,9.72
2022-11-25T10:12:59.227Z,9.81
2022-11-25T10:15:46.909Z,9.67
2022-11-25T10:18:29.584Z,9.42
2022-11-25T10:20:56.270Z,10.44
2022-11-25T10:23:34.095Z,10.10
2022-11-25T10:26:14.479Z,10.62
2022-11-25T10:28:52.242Z,10.27
2022-11-25T10:31:37.949Z,10.62
2022-11-25T10:34:25.150Z,10.48
2022-11-25T10:36:54.614Z,10.60
2022-11-25T10:39:24.682Z,10.84
2022-11-25T10:42:03.545Z,11.09
2022-11-25T10:44:41.149Z,10.88
2022-11-25T10:47:45.497Z,11.43
2022-11-25T10:50:14.973Z,11.43
2022-11-25T10:52:50.801Z,10.79
2022-11-25T10:55:25.562Z,11.32
2022-11-25T10:57:53.520Z,11.18
2022-11-25T11:00:28.306Z,11.57
2022-11-25T11:02:56.036Z,11.54
2022-11-25T11:05:24.549Z,11.37
2022-11-25T11:08:17.888Z,11.43
2022-11-25T11:10:45.473Z,11.26
2022-11-25T11:13:21.297Z,11.16
2022-11-25T11:15:48.454Z,11.60
2022-11-25T11:18:21.603Z,11.50
2022-11-25T11:20:51.631Z,11.27
2022-11-25T11:23:18.808Z,11.47
2022-11-25T11:25:59.100Z,11.71
2022-11-25T11:28:38.869Z,12.00
2022-11-25T11:31:18.073Z,11.53
2022-11-25T11:33:48.395Z,11.49
2022-11-25T11:36:15.269Z,11.71
2022-11-25T11:38:53.842Z,11.52
2022-11-25T11:41:54.858Z,11.63
2022-11-25T11:44:46.212Z,11.24
2022-11-25T11:47:31.812Z,11.42
2022-11-25T11:50:29.088Z,11.72
2022-11-25T11:52:55.794Z,11.60
2022-11-25T11:56:33.003Z,11.62
2022-11-25T11:59:00.268Z,11.66
2022-11-25T12:01:56.221Z,11.51
2022-11-25T12:04:30.988Z,11.51
2022-11-25T12:07:03.840Z,11.37
2022-11-25T12:09:36.150Z,11.51
2022-11-25T12:12:07.155Z,11.58
2022-11-25T12:14:45.737Z,11.66
2022-11-25T12:17:28.737Z,11.84
2022-11-25T12:20:04.352Z,11.77
2022-11-25T12:22:53.709Z,11.76
2022-11-25T12:25:24.385Z,11.68
2022-11-25T12:28:01.673Z,11.61
2022-11-25T12:30:36.181Z,11.72
2022-11-25T12:33:30.627Z,11.78
2022-11-25T12:36:00.297Z,11.70
2022-11-25T12:38:47.412Z,11.57
2022-11-25T12:41:38.375Z,11.46
2022-11-25T12:44:22.975Z,11.90
2022-11-25T12:46:55.415Z,11.71
2022-11-25T12:49:49.517Z,11.77
2022-11-25T12:52:54.474Z,11.74
2022-11-25T12:55:27.617Z,11.97
2022-11-25T12:58:18.855Z,11.75
2022-11-25T13:01:04.127Z,11.93
2022-11-25T13:03:36.997Z,11.75
2022-11-25T13:06:24.169Z,11.71
2022-11-25T13:09:04.390Z,11.46
2022-11-25T13:11:57.643Z,11.65
2022-11-25T13:15:03.828Z,11.05
2022-11-25T13:17:41.714Z,11.30
2022-11-25T13:20:26.951Z,11.30
2022-11-25T13:23:05.696Z,11.22
2022-11-25T13:25:33.458Z,11.04
2022-11-25T13:28:02.440Z,11.22
2022-11-25T13:30:31.953Z,11.03
2022-11-25T13:33:14.091Z,10.85
2022-11-25T13:35:44.071Z,11.17
2022-11-25T13:38:30.656Z,11.18
2022-11-25T13:41:03.210Z,10.86
2022-11-25T13:43:30.185Z,10.85
2022-11-25T13:45:57.129Z,10.85
2022-11-25T13:48:29.433Z,10.70
2022-11-25T13:51:16.497Z,10.67
2022-11-25T13:53:52.703Z,10.48
2022-11-25T13:56:30.579Z,10.48
2022-11-25T13:59:13.933Z,10.37
2022-11-25T14:01:51.977Z,10.27
2022-11-25T14:04:41.091Z,10.32
2022-11-25T14:07:34.719Z,10.23
2022-11-25T14:10:10.812Z,10.20
2022-11-25T14:12:58.630Z,10.21
2022-11-25T14:15:37.132Z,10.11
2022-11-25T14:19:03.212Z,9.97
2022-11-25T14:21:15.146Z,10.14
2022-11-25T14:23:56.041Z,9.94
2022-11-25T14:26:48.668Z,9.89
2022-11-25T14:29:27.096Z,9.86
2022-11-25T14:31:59.723Z,9.88
2022-11-25T14:34:34.086Z,9.88
2022-11-25T14:37:09.999Z,9.80
2022-11-25T14:39:43.596Z,9.81
2022-11-25T14:42:14.474Z,9.74
2022-11-25T14:44:48.093Z,9.61
2022-11-25T14:47:15.108Z,9.49
2022-11-25T14:50:33.623Z,9.60
2022-11-25T14:52:59.649Z,9.57
2022-11-25T14:55:31.399Z,9.46
2022-11-25T14:57:58.457Z,9.49
2022-11-25T15:00:25.363Z,9.46
2022-11-25T15:02:59.068Z,9.40
2022-11-25T15:05:37.782Z,9.44
2022-11-25T15:08:15.011Z,9.50
2022-11-25T15:10:51.812Z,9.48
2022-11-25T15:13:37.723Z,9.45
2022-11-25T15:16:17.145Z,9.47
2022-11-25T15:18:47.427Z,9.50
2022-11-25T15:21:16.319Z,9.45
2022-11-25T15:23:43.324Z,9.35
2022-11-25T15:26:27.945Z,9.37
2022-11-25T15:29:03.007Z,9.41
2022-11-25T15:31:33.360Z,9.33
2022-11-25T15:34:04.053Z,9.33
2022-11-25T15:36:31.060Z,9.40
2022-11-25T15:39:33.284Z,9.38
2022-11-25T15:42:07.928Z,9.37
2022-11-25T15:44:40.744Z,9.42
2022-11-25T15:47:21.124Z,9.41
2022-11-25T15:49:53.876Z,9.33
2022-11-25T15:52:22.632Z,9.29
2022-11-25T15:54:51.525Z,9.28
2022-11-25T15:57:31.978Z,9.24
2022-11-25T15:59:58.707Z,9.18
2022-11-25T16:02:37.760Z,9.14
2022-11-25T16:05:15.797Z,9.14
2022-11-25T16:07:51.651Z,9.11
2022-11-25T16:10:21.145Z,9.11
2022-11-25T16:13:20.937Z,9.17
2022-11-25T16:16:02.307Z,9.17
2022-11-25T16:18:40.727Z,9.21
2022-11-25T16:21:32.976Z,9.23
2022-11-25T16:24:40.765Z,9.17
2022-11-25T16:27:16.588Z,9.21
2022-11-25T16:30:08.288Z,9.18
2022-11-25T16:32:35.048Z,9.07
2022-11-25T16:35:21.219Z,9.07
2022-11-25T16:40:38.133Z,8.98
2022-11-25T16:43:14.454Z,8.98
2022-11-25T16:45:41.391Z,8.97
2022-11-25T16:48:19.739Z,8.89
2022-11-25T16:50:47.002Z,8.87
2022-11-25T16:53:14.062Z,8.80
2022-11-25T16:55:42.905Z,8.79
2022-11-25T16:58:18.212Z,8.79
2022-11-25T17:00:51.418Z,8.96
2022-11-25T17:03:18.882Z,8.91
2022-11-25T17:05:47.032Z,8.90
2022-11-25T17:08:14.317Z,8.91
2022-11-25T17:10:43.463Z,8.87
2022-11-25T17:13:28.238Z,8.95
2022-11-25T17:15:55.001Z,8.87
2022-11-25T17:18:22.833Z,8.83
2022-11-25T17:20:49.523Z,8.83
2022-11-25T17:23:17.478Z,8.80
2022-11-25T17:25:48.503Z,8.81
2022-11-25T17:28:20.280Z,8.84
2022-11-25T17:30:48.116Z,8.87
2022-11-25T17:33:17.593Z,8.93
2022-11-25T17:35:45.212Z,8.84
2022-11-25T17:38:15.567Z,8.77
2022-11-25T17:40:43.648Z,8.67
2022-11-25T17:43:15.609Z,8.62
2022-11-25T17:45:43.571Z,8.59
2022-11-25T17:48:12.560Z,8.62
2022-11-25T17:50:39.481Z,8.59
2022-11-25T17:53:06.190Z,8.61
2022-11-25T17:55:35.250Z,8.62
2022-11-25T17:58:02.375Z,8.67
2022-11-25T18:00:29.064Z,8.60
2022-11-25T18:02:55.895Z,8.53
2022-11-25T18:05:25.056Z,8.47
2022-11-25T18:07:52.464Z,8.42
2022-11-25T18:10:24.075Z,8.31
2022-11-25T18:12:53.247Z,8.30
2022-11-25T18:15:23.361Z,8.35
2022-11-25T18:17:51.484Z,8.40
2022-11-25T18:20:24.070Z,8.45
2022-11-25T18:22:52.373Z,8.41
2022-11-25T18:25:23.137Z,8.40
2022-11-25T18:27:56.210Z,8.35
2022-11-25T18:30:29.731Z,8.24
2022-11-25T18:32:57.425Z,8.27
2022-11-25T18:35:31.126Z,8.24
2022-11-25T18:38:01.202Z,8.17
2022-11-25T18:40:29.295Z,8.14
2022-11-25T18:43:00.397Z,8.12
2022-11-25T18:45:30.878Z,8.05
2022-11-25T18:47:57.673Z,8.00
2022-11-25T18:50:26.088Z,7.98
2022-11-25T18:52:53.334Z,7.85
2022-11-25T18:55:22.889Z,7.77
2022-11-25T18:57:51.588Z,7.75
2022-11-25T19:00:32.384Z,7.73
2022-11-25T19:03:00.228Z,7.76
2022-11-25T19:05:31.662Z,7.76
2022-11-25T19:07:59.271Z,7.73
2022-11-25T19:10:30.866Z,7.82
2022-11-25T19:13:01.003Z,7.84
2022-11-25T19:15:27.961Z,7.84
2022-11-25T19:17:58.120Z,7.86
2022-11-25T19:20:26.454Z,7.83
2022-11-25T19:22:57.853Z,7.79
2022-11-25T19:25:27.213Z,7.82
2022-11-25T19:27:57.765Z,7.85
2022-11-25T19:30:27.883Z,7.83
2022-11-25T19:32:58.255Z,7.77
2022-11-25T19:35:33.360Z,7.82
2022-11-25T19:38:00.118Z,7.78
2022-11-25T19:40:27.048Z,7.75
2022-11-25T19:42:54.094Z,7.70
2022-11-25T19:45:21.422Z,7.67
2022-11-25T19:47:52.238Z,7.51
2022-11-25T19:50:26.775Z,7.57
2022-11-25T19:52:54.262Z,7.51
2022-11-25T19:55:23.943Z,7.43
2022-11-25T19:57:51.925Z,7.51
2022-11-25T20:00:20.812Z,7.61
2022-11-25T20:02:51.002Z,7.59
2022-11-25T20:05:22.362Z,7.60
2022-11-25T20:07:49.326Z,7.70
2022-11-25T20:10:20.182Z,7.74
2022-11-25T20:12:47.628Z,7.75
2022-11-25T20:15:14.719Z,7.72
2022-11-25T20:17:46.476Z,7.73
2022-11-25T20:20:18.610Z,7.61
2022-11-25T20:23:16.351Z,7.69
2022-11-25T20:25:45.824Z,7.57
2022-11-25T20:28:20.310Z,7.54
2022-11-25T20:30:48.474Z,7.57
2022-11-25T20:33:19.829Z,7.59
2022-11-25T20:35:52.068Z,7.53
2022-11-25T20:38:22.367Z,7.46
2022-11-25T20:40:52.021Z,7.44
2022-11-25T20:43:32.177Z,7.34
2022-11-25T20:46:00.505Z,7.38
2022-11-25T20:48:28.830Z,7.31
2022-11-25T20:51:03.488Z,7.26
2022-11-25T20:53:32.394Z,7.22
2022-11-25T20:55:59.581Z,7.16
2022-11-25T20:58:31.212Z,7.09
2022-11-25T21:00:59.291Z,7.08
2022-11-25T21:03:26.576Z,7.07
2022-11-25T21:05:55.542Z,7.07
2022-11-25T21:08:24.367Z,7.15
2022-11-25T21:10:53.971Z,7.07
2022-11-25T21:13:23.380Z,7.06
2022-11-25T21:15:53.254Z,7.03
2022-11-25T21:18:23.623Z,7.01
2022-11-25T21:20:54.051Z,7.08
2022-11-25T21:23:27.574Z,7.05
2022-11-25T21:26:00.127Z,7.09
2022-11-25T21:28:27.725Z,7.14
2022-11-25T21:30:54.378Z,7.11
2022-11-25T21:33:21.096Z,7.10
2022-11-25T21:35:49.865Z,7.19
2022-11-25T21:38:21.002Z,7.19
2022-11-25T21:40:58.589Z,7.15
2022-11-25T21:43:32.909Z,7.14
2022-11-25T21:46:07.619Z,7.20
2022-11-25T21:48:34.791Z,7.17
2022-11-25T21:51:01.464Z,7.18
2022-11-25T21:53:30.107Z,7.17
2022-11-25T21:55:59.930Z,7.11
2022-11-25T21:58:29.575Z,7.07
2022-11-25T22:01:01.659Z,7.02
2022-11-25T22:03:30.895Z,6.90
2022-11-25T22:05:57.887Z,6.85
2022-11-25T22:08:24.624Z,6.88
2022-11-25T22:10:53.315Z,6.90
2022-11-25T22:13:34.178Z,6.93
2022-11-25T22:16:01.687Z,6.91
2022-11-25T22:18:31.633Z,6.93
2022-11-25T22:20:58.939Z,6.97
2022-11-25T22:23:26.662Z,7.01
2022-11-25T22:25:54.251Z,7.03
2022-11-25T22:28:24.334Z,7.11
2022-11-25T22:30:57.722Z,7.14
2022-11-25T22:33:33.367Z,7.09
2022-11-25T22:36:00.628Z,7.19
2022-11-25T22:38:29.253Z,7.18
2022-11-25T22:41:02.603Z,7.19
2022-11-25T22:43:39.848Z,7.24
2022-11-25T22:46:06.892Z,7.20
2022-11-25T22:48:36.292Z,7.20
2022-11-25T22:51:03.414Z,7.19
2022-11-25T22:53:30.458Z,7.20
2022-11-25T22:55:58.342Z,7.24
2022-11-25T22:58:26.485Z,7.23
2022-11-25T23:00:55.268Z,7.20
2022-11-25T23:03:29.676Z,7.21
2022-11-25T23:05:57.416Z,7.13
2022-11-25T23:08:28.993Z,7.11
2022-11-25T23:10:56.519Z,7.06
2022-11-25T23:13:24.004Z,7.09
2022-11-25T23:15:56.010Z,7.04
2022-11-25T23:18:40.445Z,6.99
2022-11-25T23:21:16.147Z,6.95
2022-11-25T23:23:42.902Z,6.89
2022-11-25T23:26:10.870Z,6.80
2022-11-25T23:28:37.538Z,6.77
2022-11-25T23:31:04.465Z,6.63
2022-11-25T23:33:39.173Z,6.66
2022-11-25T23:36:21.965Z,6.58
2022-11-25T23:38:54.848Z,6.45
2022-11-25T23:41:27.206Z,6.48
2022-11-25T23:43:55.164Z,6.53
2022-11-25T23:46:27.536Z,6.45
2022-11-25T23:48:58.657Z,6.41
2022-11-25T23:51:27.256Z,6.40
2022-11-25T23:53:55.476Z,6.38
2022-11-25T23:56:23.127Z,6.43
2022-11-25T23:58:50.082Z,6.51
